Time;durP1;ratioP1;P1;durP2;ratioP2;P2;SDS_P1;SDS_P2;PMS_P1;PMS_P2;Temp;Humidity;BMP_temperature;BMP_pressure;BME280_temperature;BME280_humidity;BME280_pressure;Samples;Min_cycle;Max_cycle;Signal;HPM_P1;HPM_P2
2021/04/15 00:00:21;;;;;;;8.65;3.90;;;;;;;0.09;81.28;102424.03;2584761;55;20125;-72
2021/04/15 00:02:49;;;;;;;8.02;3.28;;;;;;;0.00;81.49;102424.97;2585741;55;20120;-70
2021/04/15 00:05:24;;;;;;;7.30;2.62;;;;;;;-0.05;81.84;102422.34;2584558;55;20116;-70
2021/04/15 00:07:53;;;;;;;7.93;3.08;;;;;;;-0.12;82.37;102438.09;2586190;55;20128;-70
2021/04/15 00:10:23;;;;;;;7.43;3.40;;;;;;;-0.17;82.92;102431.13;2584979;55;20113;-70
2021/04/15 00:12:50;;;;;;;5.68;2.58;;;;;;;-0.23;82.85;102436.38;2585593;55;20104;-72
2021/04/15 00:15:18;;;;;;;4.45;2.50;;;;;;;-0.25;83.32;102438.12;2584903;55;20133;-72
2021/04/15 00:17:45;;;;;;;4.60;2.12;;;;;;;-0.33;83.41;102442.53;2583506;55;20604;-72
2021/04/15 00:20:14;;;;;;;3.95;1.77;;;;;;;-0.39;84.17;102437.31;2585680;55;20658;-70
2021/04/15 00:22:42;;;;;;;4.47;1.55;;;;;;;-0.46;84.69;102442.53;2585753;55;20089;-70
2021/04/15 00:25:11;;;;;;;3.62;2.05;;;;;;;-0.50;85.34;102440.81;2585068;55;20559;-70
2021/04/15 00:27:38;;;;;;;5.53;2.05;;;;;;;-0.56;85.35;102443.44;2583979;55;20101;-70
2021/04/15 00:30:08;;;;;;;4.62;1.62;;;;;;;-0.60;85.09;102445.19;2585834;55;20117;-72
2021/04/15 00:32:36;;;;;;;3.37;1.62;;;;;;;-0.66;85.41;102442.53;2579747;55;20162;-73
2021/04/15 00:35:04;;;;;;;4.32;1.50;;;;;;;-0.72;85.83;102440.81;2585325;55;20112;-73
2021/04/15 00:37:48;;;;;;;3.60;1.48;;;;;;;-0.72;85.76;102448.66;2584760;55;20625;-70
2021/04/15 00:40:18;;;;;;;2.37;1.17;;;;;;;-0.74;87.07;102450.41;2584175;55;20113;-71
2021/04/15 00:42:45;;;;;;;2.33;1.33;;;;;;;-0.78;86.80;102445.19;2584478;55;20481;-71
2021/04/15 00:45:16;;;;;;;3.75;0.90;;;;;;;-0.82;87.81;102444.31;2584956;55;20127;-71
2021/04/15 00:47:46;;;;;;;2.70;1.20;;;;;;;-0.82;88.02;102454.78;2586654;55;20204;-72
2021/04/15 00:50:20;;;;;;;2.72;1.33;;;;;;;-0.77;87.91;102463.53;2585982;55;20126;-72
2021/04/15 00:52:54;;;;;;;3.60;0.90;;;;;;;-0.79;88.08;102462.66;2584555;55;20171;-71
2021/04/15 00:55:27;;;;;;;2.22;1.20;;;;;;;-0.80;88.05;102463.53;2585108;55;20116;-70
2021/04/15 00:57:56;;;;;;;1.15;0.90;;;;;;;-0.80;88.28;102474.03;2584733;55;20164;-73
2021/04/15 01:00:28;;;;;;;2.15;0.90;;;;;;;-0.78;87.99;102476.63;2583485;55;20135;-70
2021/04/15 01:02:56;;;;;;;1.83;0.85;;;;;;;-0.80;88.42;102479.28;2585456;55;20101;-72
2021/04/15 01:05:27;;;;;;;0.68;0.55;;;;;;;-0.81;88.76;102472.25;2584462;55;20112;-72
2021/04/15 01:07:55;;;;;;;2.35;1.05;;;;;;;-0.82;88.94;102465.28;2580831;55;20113;-73
2021/04/15 01:10:26;;;;;;;2.03;0.90;;;;;;;-0.81;87.82;102472.25;2584447;55;20113;-70
2021/04/15 01:13:16;;;;;;;3.60;1.05;;;;;;;-0.74;88.61;102470.53;2586602;55;20494;-73
2021/04/15 01:16:12;;;;;;;1.35;0.90;;;;;;;-0.79;87.84;102467.91;2584979;55;20135;-70
2021/04/15 01:18:46;;;;;;;1.50;0.90;;;;;;;-0.77;88.21;102481.88;2584300;55;20121;-70
2021/04/15 01:21:41;;;;;;;1.58;0.85;;;;;;;-0.78;87.55;102479.25;2584974;55;20627;-70
2021/04/15 01:24:15;;;;;;;1.65;0.80;;;;;;;-0.90;88.49;102485.34;2585118;55;20139;-70
2021/04/15 01:27:06;;;;;;;2.58;0.80;;;;;;;-0.95;88.46;102479.25;2585226;55;20133;-71
2021/04/15 01:29:50;;;;;;;2.85;1.67;;;;;;;-1.00;89.07;102482.75;2586119;55;20168;-72
2021/04/15 01:32:23;;;;;;;2.08;1.00;;;;;;;-1.08;90.03;102497.56;2584200;55;20141;-73
2021/04/15 01:34:56;;;;;;;2.22;1.00;;;;;;;-1.10;90.21;102494.09;2585845;55;20617;-70
2021/04/15 01:37:40;;;;;;;1.12;0.70;;;;;;;-1.05;90.40;102483.59;2587037;55;20116;-72
2021/04/15 01:40:15;;;;;;;0.93;0.75;;;;;;;-1.05;90.71;102488.81;2583135;55;20113;-70
2021/04/15 01:42:54;;;;;;;2.35;1.00;;;;;;;-1.04;90.71;102498.47;2585427;55;20113;-70
2021/04/15 01:45:23;;;;;;;2.45;1.85;;;;;;;-1.05;90.95;102494.94;2584770;55;20121;-70
2021/04/15 01:47:58;;;;;;;1.42;1.10;;;;;;;-0.98;90.94;102496.72;2584676;55;20107;-70
2021/04/15 01:50:32;;;;;;;1.80;0.90;;;;;;;-0.89;90.11;102495.00;2584931;55;20121;-70
2021/04/15 01:53:05;;;;;;;1.55;0.82;;;;;;;-0.89;89.87;102501.09;2585182;55;20129;-73
2021/04/15 01:55:37;;;;;;;1.48;1.20;;;;;;;-0.92;90.72;102510.69;2584968;55;20147;-70
2021/04/15 01:58:12;;;;;;;1.73;0.90;;;;;;;-0.93;90.92;102501.97;2583104;55;20167;-72
2021/04/15 02:00:44;;;;;;;1.77;1.00;;;;;;;-0.93;90.07;102499.34;2582833;55;20154;-70
2021/04/15 02:03:17;;;;;;;1.35;0.80;;;;;;;-0.94;90.03;102512.44;2585904;55;20523;-70
2021/04/15 02:05:47;;;;;;;1.40;0.80;;;;;;;-1.00;90.38;102506.34;2584416;55;20109;-72
2021/04/15 02:08:18;;;;;;;2.30;1.10;;;;;;;-1.00;89.96;102508.94;2585361;55;20608;-72
2021/04/15 02:10:50;;;;;;;4.20;1.30;;;;;;;-1.03;90.34;102508.91;2584976;55;20123;-73
2021/04/15 02:13:18;;;;;;;2.87;1.20;;;;;;;-1.08;90.64;102512.41;2586068;55;20113;-73
2021/04/15 02:15:51;;;;;;;3.03;1.20;;;;;;;-1.10;91.00;102506.28;2583805;55;20104;-70
2021/04/15 02:18:23;;;;;;;1.35;0.90;;;;;;;-1.12;90.87;102504.53;2583715;55;20108;-72
2021/04/15 02:20:52;;;;;;;;;;;;;;;-0.94;88.42;102499.34;2584807;55;20130;-72
2021/04/15 02:23:26;;;;;;;1.27;0.88;;;;;;;-1.08;90.26;102502.81;2584482;55;20005;-70
2021/04/15 02:25:57;;;;;;;2.10;1.17;;;;;;;-1.15;91.40;102501.03;2586040;55;20119;-70
2021/04/15 02:28:30;;;;;;;3.55;2.78;;;;;;;-1.15;91.27;102501.03;2582859;55;20116;-72
2021/04/15 02:31:07;;;;;;;2.10;1.90;;;;;;;-1.17;91.30;102503.66;2585993;55;20117;-70
2021/04/15 02:33:42;;;;;;;2.28;1.40;;;;;;;-1.20;91.86;102502.75;2584950;55;20119;-73
2021/04/15 02:36:11;;;;;;;1.48;1.10;;;;;;;-1.22;91.62;102507.13;2586008;55;20127;-70
2021/04/15 02:38:47;;;;;;;4.65;1.15;;;;;;;-1.36;91.75;102492.25;2584326;55;20136;-72
2021/04/15 02:41:18;;;;;;;1.55;1.10;;;;;;;-1.32;92.42;102498.38;2584339;55;20161;-70
2021/04/15 02:43:51;;;;;;;2.30;1.30;;;;;;;-1.37;92.27;102498.34;2584906;55;20123;-72
2021/04/15 02:46:24;;;;;;;2.62;1.30;;;;;;;-1.31;92.23;102508.84;2585744;55;20114;-70
2021/04/15 02:48:56;;;;;;;4.93;1.20;;;;;;;-1.34;92.41;102508.84;2583434;55;20109;-69
2021/04/15 02:51:29;;;;;;;1.58;0.95;;;;;;;-1.34;92.56;102506.22;2578553;55;20125;-70
2021/04/15 02:54:03;;;;;;;2.25;1.20;;;;;;;-1.32;92.66;102512.31;2584001;55;20114;-72
2021/04/15 02:56:39;;;;;;;2.67;1.20;;;;;;;-1.31;92.40;102514.06;2584034;55;20121;-72
2021/04/15 02:59:14;;;;;;;2.95;1.35;;;;;;;-1.31;92.71;102519.31;2583652;55;20132;-72
2021/04/15 03:01:45;;;;;;;1.30;1.20;;;;;;;-1.33;92.45;102510.59;2584041;55;20503;-72
2021/04/15 03:04:14;;;;;;;;;;;;;;;-1.14;91.46;102529.88;2584507;55;20109;-70
2021/04/15 03:06:44;;;;;;;1.87;0.95;;;;;;;-1.23;92.21;102527.22;2584119;55;20385;-70
2021/04/15 03:09:13;;;;;;;1.60;0.90;;;;;;;-1.20;92.57;102527.22;2583982;55;20109;-72
2021/04/15 03:11:45;;;;;;;1.30;0.73;;;;;;;-1.18;92.59;102532.47;2584052;55;20125;-70
2021/04/15 03:14:17;;;;;;;;;;;;;;;-1.03;91.11;102535.13;2584521;55;20123;-70
2021/04/15 03:16:49;;;;;;;1.08;0.80;;;;;;;-1.11;91.72;102534.22;2584170;55;19988;-72
2021/04/15 03:19:19;;;;;;;;;;;;;;;-0.98;89.67;102536.03;2584361;55;20135;-72
2021/04/15 03:21:56;;;;;;;1.50;1.20;;;;;;;-1.08;91.05;102542.13;2584119;55;20036;-70
2021/04/15 03:24:29;;;;;;;2.30;0.90;;;;;;;-1.10;92.11;102542.97;2584191;55;20127;-70
2021/04/15 03:27:05;;;;;;;1.45;0.98;;;;;;;-1.09;92.15;102544.72;2584059;55;20189;-70
2021/04/15 03:29:38;;;;;;;2.08;0.90;;;;;;;-1.06;92.43;102548.22;2583981;55;20117;-72
2021/04/15 03:32:18;;;;;;;1.55;0.90;;;;;;;-1.03;92.23;102553.47;2583942;55;20120;-70
2021/04/15 03:34:52;;;;;;;1.80;0.88;;;;;;;-1.05;92.37;102552.59;2584005;55;20162;-70
2021/04/15 03:37:23;;;;;;;2.37;1.02;;;;;;;-0.96;92.42;102556.13;2584039;55;20125;-72
2021/04/15 03:39:53;;;;;;;2.22;0.93;;;;;;;-0.87;91.75;102561.38;2583791;55;20116;-71
2021/04/15 03:42:28;;;;;;;2.60;1.25;;;;;;;-0.84;91.58;102569.25;2578938;55;20131;-72
2021/04/15 03:45:04;;;;;;;2.15;1.00;;;;;;;-0.74;91.50;102578.03;2583825;55;20113;-72
2021/04/15 03:47:37;;;;;;;1.80;1.10;;;;;;;-0.73;92.45;102574.53;2583894;55;20137;-72
2021/04/15 03:50:09;;;;;;;3.65;1.37;;;;;;;-0.67;91.59;102574.53;2583977;55;20132;-70
2021/04/15 03:52:43;;;;;;;3.20;1.48;;;;;;;-0.57;91.34;102578.91;2583898;55;20131;-72
2021/04/15 03:55:17;;;;;;;2.90;1.92;;;;;;;-0.53;91.55;102582.41;2583816;55;20105;-70
2021/04/15 03:57:46;;;;;;;3.12;1.30;;;;;;;-0.46;90.69;102585.91;2584062;55;20175;-70
2021/04/15 04:00:18;;;;;;;3.78;1.50;;;;;;;-0.36;90.82;102599.94;2583778;55;20117;-70
2021/04/15 04:02:48;;;;;;;;;;;;;;;-0.19;90.01;102600.81;2584353;55;20113;-70
2021/04/15 04:05:21;;;;;;;2.35;1.40;;;;;;;-0.22;90.24;102611.28;2584034;55;20011;-70
2021/04/15 04:07:52;;;;;;;2.83;1.20;;;;;;;-0.16;89.72;102616.56;2584114;55;20651;-72
2021/04/15 04:10:22;;;;;;;1.87;1.33;;;;;;;-0.08;89.81;102615.69;2583884;55;20127;-70
2021/04/15 04:12:57;;;;;;;5.03;1.37;;;;;;;-0.02;89.32;102618.28;2583912;55;20231;-72
2021/04/15 04:15:31;;;;;;;2.00;0.90;;;;;;;0.02;88.74;102611.28;2583804;55;20134;-70
2021/04/15 04:18:11;;;;;;;1.85;0.85;;;;;;;0.07;88.85;102610.41;2583993;55;20157;-70
2021/04/15 04:20:41;;;;;;;2.42;1.20;;;;;;;0.18;88.77;102617.41;2578654;55;20515;-72
2021/04/15 04:23:12;;;;;;;4.05;1.12;;;;;;;0.27;88.17;102607.78;2583867;55;20123;-73
2021/04/15 04:25:46;;;;;;;3.33;1.27;;;;;;;0.42;87.82;102611.25;2583694;55;20113;-70
2021/04/15 04:28:19;;;;;;;3.60;1.23;;;;;;;0.51;88.24;102605.12;2578893;55;20658;-70
2021/04/15 04:30:50;;;;;;;7.15;1.17;;;;;;;0.63;86.81;102610.31;2583652;55;20120;-70
2021/04/15 04:33:24;;;;;;;1.10;1.00;;;;;;;0.80;86.06;102622.50;2584020;55;20113;-70
2021/04/15 04:35:52;;;;;;;4.95;1.45;;;;;;;0.93;84.97;102618.09;2583758;55;20629;-70
2021/04/15 04:38:21;;;;;;;3.05;1.20;;;;;;;1.10;86.27;102616.25;2583690;55;20094;-70
2021/04/15 04:40:53;;;;;;;2.33;0.90;;;;;;;1.23;83.88;102614.44;2583604;55;20113;-70
2021/04/15 04:43:25;;;;;;;5.62;1.20;;;;;;;1.36;84.20;102611.75;2583713;55;20135;-70
2021/04/15 04:45:58;;;;;;;2.58;1.05;;;;;;;1.42;83.09;102601.19;2583582;55;20117;-72
2021/04/15 04:48:31;;;;;;;5.18;2.10;;;;;;;1.69;82.75;102624.69;2583836;55;20181;-70
2021/04/15 04:51:04;;;;;;;8.93;4.00;;;;;;;1.86;81.09;102627.19;2583892;55;20181;-72
2021/04/15 04:53:35;;;;;;;3.22;2.50;;;;;;;1.98;79.11;102626.22;2583877;55;20112;-70
2021/04/15 04:56:21;;;;;;;4.82;2.45;;;;;;;2.10;78.96;102610.31;2583501;55;20115;-71
2021/04/15 04:58:51;;;;;;;5.57;1.52;;;;;;;2.28;78.02;102622.44;2583791;55;20123;-71
2021/04/15 05:01:19;;;;;;;2.95;1.20;;;;;;;2.40;77.29;102628.47;2583601;55;20135;-72
2021/04/15 05:03:47;;;;;;;3.45;1.62;;;;;;;2.49;76.66;102634.53;2583727;55;20109;-72
2021/04/15 05:06:25;;;;;;;3.20;1.33;;;;;;;2.66;75.97;102622.94;2583602;55;20116;-72
2021/04/15 05:09:00;;;;;;;2.72;1.20;;;;;;;2.79;75.47;102631.56;2583703;55;20097;-72
2021/04/15 05:11:29;;;;;;;3.72;1.95;;;;;;;2.89;74.71;102627.06;2583702;55;20123;-72
2021/04/15 05:13:57;;;;;;;2.72;1.62;;;;;;;3.01;74.22;102631.31;2583507;55;20133;-70
2021/04/15 05:16:30;;;;;;;4.43;1.55;;;;;;;3.09;72.54;102636.47;2583521;55;20623;-70
2021/04/15 05:18:59;;;;;;;4.82;1.10;;;;;;;3.27;73.23;102641.53;2583762;55;20119;-70
2021/04/15 05:21:30;;;;;;;2.83;0.77;;;;;;;3.53;72.52;102649.97;2583676;55;20109;-70
2021/04/15 05:24:06;;;;;;;3.28;1.08;;;;;;;3.75;71.80;102640.81;2583774;55;20139;-72
2021/04/15 05:26:36;;;;;;;2.65;1.17;;;;;;;3.88;68.62;102640.63;2583514;55;20113;-71
2021/04/15 05:29:07;;;;;;;5.53;1.00;;;;;;;3.96;68.16;102644.00;2583547;55;20121;-71
2021/04/15 05:31:41;;;;;;;1.33;1.10;;;;;;;4.11;68.51;102652.56;2583542;55;20109;-71
2021/04/15 05:34:19;;;;;;;4.90;1.30;;;;;;;4.17;67.89;102663.03;2583714;55;20635;-72
2021/04/15 05:36:47;;;;;;;6.90;1.55;;;;;;;4.26;68.06;102654.94;2583510;55;20131;-72
2021/04/15 05:39:18;;;;;;;2.25;1.25;;;;;;;4.25;67.50;102639.13;2583599;55;20113;-72
2021/04/15 05:41:50;;;;;;;1.58;1.15;;;;;;;4.30;64.90;102659.28;2578547;55;20168;-71
2021/04/15 05:44:23;;;;;;;1.48;0.70;;;;;;;4.24;64.24;102650.59;2583641;55;20112;-71
2021/04/15 05:46:53;;;;;;;2.25;1.00;;;;;;;4.32;64.99;102662.78;2583519;55;20127;-72
2021/04/15 05:49:25;;;;;;;2.90;1.25;;;;;;;4.55;65.82;102660.59;2583340;55;20109;-71
2021/04/15 05:51:59;;;;;;;5.35;1.58;;;;;;;4.72;65.36;102661.16;2583562;55;20097;-72
2021/04/15 05:54:30;;;;;;;2.35;1.20;;;;;;;4.76;63.07;102651.41;2583616;55;20104;-68
2021/04/15 05:57:03;;;;;;;6.22;1.23;;;;;;;4.87;63.15;102664.44;2583605;55;20135;-70
2021/04/15 05:59:47;;;;;;;4.40;1.08;;;;;;;4.98;63.30;102656.25;2583490;55;20097;-69
2021/04/15 06:02:31;;;;;;;4.72;1.40;;;;;;;5.17;62.65;102658.53;2583686;55;20113;-70
2021/04/15 06:05:06;;;;;;;2.00;0.93;;;;;;;5.21;62.05;102661.06;2583281;55;20109;-71
2021/04/15 06:07:36;;;;;;;0.88;0.80;;;;;;;5.40;60.86;102669.47;2583458;55;20117;-71
2021/04/15 06:10:05;;;;;;;3.00;1.00;;;;;;;5.55;61.06;102659.47;2583370;55;20456;-69
2021/04/15 06:12:40;;;;;;;2.12;1.27;;;;;;;5.70;56.39;102667.03;2583626;55;20121;-71
2021/04/15 06:15:13;;;;;;;1.92;0.57;;;;;;;5.79;53.62;102665.06;2583375;55;20097;-70
2021/04/15 06:17:45;;;;;;;0.90;0.80;;;;;;;5.90;56.98;102673.63;2583575;55;20503;-68
2021/04/15 06:20:21;;;;;;;1.83;0.80;;;;;;;6.12;53.23;102668.72;2583508;55;20109;-71
2021/04/15 06:22:50;;;;;;;1.10;0.80;;;;;;;6.35;50.11;102680.50;2583358;55;20119;-72
2021/04/15 06:25:22;;;;;;;1.73;1.10;;;;;;;6.51;52.29;102651.84;2583356;55;20102;-72
2021/04/15 06:27:50;;;;;;;3.12;0.77;;;;;;;6.69;50.52;102670.78;2583383;55;20117;-71
2021/04/15 06:30:23;;;;;;;3.70;1.17;;;;;;;6.78;47.61;102683.78;2583224;55;20534;-72
2021/04/15 06:33:11;;;;;;;2.08;0.85;;;;;;;6.85;47.94;102678.31;2582523;55;20142;-71
2021/04/15 06:35:44;;;;;;;0.80;0.68;;;;;;;6.85;47.30;102680.97;2584137;55;20122;-71
2021/04/15 06:38:18;;;;;;;1.87;0.50;;;;;;;6.82;47.64;102689.88;2584429;55;20116;-72
2021/04/15 06:41:20;;;;;;;1.45;0.55;;;;;;;7.13;46.60;102683.72;2584165;55;20119;-71
2021/04/15 06:44:38;;;;;;;0.77;0.60;;;;;;;7.24;44.39;102689.56;2584198;55;20112;-72
2021/04/15 06:47:26;;;;;;;1.42;0.80;;;;;;;7.12;44.09;102705.00;2579336;55;20113;-72
2021/04/15 06:50:13;;;;;;;3.97;0.73;;;;;;;6.91;44.57;102702.03;2584242;55;20127;-71
2021/04/15 06:52:54;;;;;;;0.70;0.50;;;;;;;6.86;44.40;102706.59;2584130;55;20534;-72
2021/04/15 06:55:36;;;;;;;1.48;0.75;;;;;;;6.82;44.88;102709.34;2584030;55;20180;-71
2021/04/15 06:58:30;;;;;;;1.35;0.70;;;;;;;6.80;43.94;102708.50;2584248;55;20108;-72
2021/04/15 07:01:31;;;;;;;1.73;1.00;;;;;;;6.74;44.22;102706.03;2584053;55;20530;-72
2021/04/15 07:04:05;;;;;;;2.08;0.55;;;;;;;6.72;45.54;102720.25;2581322;55;20123;-72
2021/04/15 07:06:46;;;;;;;0.40;0.40;;;;;;;6.87;44.46;102721.59;2584117;55;20519;-71
2021/04/15 07:09:35;;;;;;;2.30;0.73;;;;;;;6.87;44.98;102725.16;2584312;55;20127;-71
2021/04/15 07:12:19;;;;;;;1.02;0.57;;;;;;;6.68;44.33;102725.63;2584272;55;20121;-72
2021/04/15 07:15:01;;;;;;;1.35;0.80;;;;;;;6.62;45.20;102722.28;2584011;55;20629;-70
2021/04/15 07:17:49;;;;;;;1.35;0.70;;;;;;;6.63;45.64;102727.53;2584337;55;20121;-72
2021/04/15 07:20:51;;;;;;;1.05;0.70;;;;;;;6.82;44.46;102722.63;2584294;55;20128;-72
2021/04/15 07:23:45;;;;;;;1.27;0.35;;;;;;;6.66;43.78;102726.59;2584031;55;20119;-71
2021/04/15 07:26:40;;;;;;;1.85;0.60;;;;;;;6.47;44.55;102723.56;2584097;55;20149;-72
2021/04/15 07:29:40;;;;;;;0.80;0.55;;;;;;;6.56;45.45;102725.09;2584263;55;20136;-72
2021/04/15 07:32:49;;;;;;;2.05;0.50;;;;;;;6.75;44.56;102726.34;2584182;55;20515;-72
2021/04/15 07:35:27;;;;;;;0.68;0.50;;;;;;;6.71;43.52;102719.34;2584053;55;20184;-72
2021/04/15 07:38:46;;;;;;;1.10;0.70;;;;;;;6.99;44.92;102723.91;2584058;55;20141;-72
2021/04/15 07:41:27;;;;;;;1.45;0.47;;;;;;;7.12;44.36;102736.88;2568623;55;20132;-71
2021/04/15 07:44:27;;;;;;;2.65;0.70;;;;;;;7.43;44.81;102718.25;2584141;55;20687;-71
2021/04/15 07:47:34;;;;;;;1.85;0.77;;;;;;;7.75;43.62;102723.50;2584268;55;20628;-71
2021/04/15 07:50:46;;;;;;;2.40;0.90;;;;;;;8.02;44.94;102736.84;2578493;55;20112;-71
2021/04/15 07:53:56;;;;;;;0.62;0.55;;;;;;;8.02;41.95;102726.22;2583958;55;20266;-71
2021/04/15 07:57:05;;;;;;;0.52;0.50;;;;;;;7.77;43.08;102732.28;2583783;55;20135;-71
2021/04/15 07:59:52;;;;;;;0.52;0.40;;;;;;;7.50;42.50;102725.13;2583900;55;20682;-72
2021/04/15 08:03:03;;;;;;;1.62;0.32;;;;;;;7.80;40.88;102748.13;2583982;55;20147;-72
2021/04/15 08:06:03;;;;;;;0.73;0.57;;;;;;;7.74;41.99;102745.69;2566948;55;20136;-72
2021/04/15 08:09:02;;;;;;;2.58;0.50;;;;;;;7.95;42.85;102744.13;2582979;55;20113;-71
2021/04/15 08:11:43;;;;;;;1.37;0.20;;;;;;;8.15;40.69;102748.81;2583940;55;20113;-72
2021/04/15 08:14:45;;;;;;;0.52;0.40;;;;;;;8.09;39.07;102762.28;2583995;55;20132;-71
2021/04/15 08:17:25;;;;;;;0.52;0.30;;;;;;;7.85;38.95;102746.22;2583946;55;20600;-72
2021/04/15 08:20:22;;;;;;;2.47;0.50;;;;;;;7.71;40.11;102749.28;2583940;55;20792;-72
2021/04/15 08:23:16;;;;;;;0.40;0.30;;;;;;;7.87;40.52;102747.03;2584025;55;20105;-70
2021/04/15 08:26:00;;;;;;;1.02;0.50;;;;;;;7.87;40.56;102752.34;2583751;55;20173;-70
2021/04/15 08:28:37;;;;;;;1.70;0.40;;;;;;;7.90;40.52;102740.75;2583976;55;20160;-71
2021/04/15 08:31:18;;;;;;;0.70;0.60;;;;;;;8.30;40.55;102750.09;2583783;55;20105;-72
2021/04/15 08:33:55;;;;;;;;;;;;;;;8.52;38.53;102743.19;2579114;55;20121;-71
2021/04/15 08:36:54;;;;;;;1.98;0.70;;;;;;;8.25;37.74;102745.84;2583774;55;20014;-71
2021/04/15 08:39:34;;;;;;;0.68;0.60;;;;;;;7.88;38.20;102745.25;2584009;55;20136;-71
2021/04/15 08:42:15;;;;;;;0.90;0.65;;;;;;;8.12;38.41;102742.72;2584034;55;20112;-71
2021/04/15 08:45:03;;;;;;;0.75;0.40;;;;;;;8.25;39.56;102756.50;2583867;55;20701;-72
2021/04/15 08:47:49;;;;;;;1.17;0.70;;;;;;;8.33;37.06;102762.44;2583276;55;20134;-72
2021/04/15 08:50:29;;;;;;;0.68;0.60;;;;;;;8.03;37.78;102758.03;2583621;55;20116;-70
2021/04/15 08:53:04;;;;;;;0.95;0.40;;;;;;;7.97;36.95;102754.72;2583987;55;20097;-72
2021/04/15 08:55:38;;;;;;;0.52;0.35;;;;;;;8.01;38.08;102756.34;2583596;55;20519;-72
2021/04/15 08:58:26;;;;;;;1.27;0.80;;;;;;;8.04;37.37;102750.94;2583922;55;20117;-71
2021/04/15 09:01:02;;;;;;;1.30;0.43;;;;;;;7.92;36.00;102742.44;2583694;55;20123;-72
2021/04/15 09:03:38;;;;;;;0.82;0.43;;;;;;;7.74;37.23;102751.00;2584052;55;20169;-71
2021/04/15 09:06:20;;;;;;;0.90;0.40;;;;;;;7.91;37.92;102730.03;2583837;55;20120;-71
2021/04/15 09:09:20;;;;;;;3.92;0.55;;;;;;;8.04;37.76;102735.00;2583782;55;20526;-72
2021/04/15 09:12:01;;;;;;;1.65;0.85;;;;;;;8.17;39.77;102738.13;2566634;55;20754;-71
2021/04/15 09:14:47;;;;;;;;;;;;;;;8.50;38.82;102743.22;2582385;55;20124;-71
2021/04/15 09:17:23;;;;;;;0.70;0.50;;;;;;;8.65;38.76;102741.87;2579371;55;20015;-71
2021/04/15 09:20:01;;;;;;;0.70;0.50;;;;;;;9.01;37.30;102744.13;2583806;55;20112;-71
2021/04/15 09:22:49;;;;;;;2.22;0.60;;;;;;;8.87;37.78;102746.44;2583675;55;20127;-71
2021/04/15 09:25:21;;;;;;;1.48;0.80;;;;;;;8.97;36.41;102747.84;2583797;55;20619;-71
2021/04/15 09:27:58;;;;;;;1.10;0.62;;;;;;;9.02;37.06;102740.56;2583668;55;20109;-72
2021/04/15 09:30:54;;;;;;;0.77;0.62;;;;;;;9.36;35.95;102737.56;2583710;55;20120;-71
2021/04/15 09:33:43;;;;;;;1.58;0.52;;;;;;;9.21;35.64;102736.34;2583748;55;20128;-71
2021/04/15 09:36:22;;;;;;;2.75;1.23;;;;;;;9.25;35.07;102725.53;2583640;55;20140;-73
2021/04/15 09:39:15;;;;;;;4.00;0.80;;;;;;;8.93;36.05;102729.38;2583632;55;20138;-73
2021/04/15 09:42:08;;;;;;;0.50;0.40;;;;;;;8.96;37.68;102738.13;2582995;55;20131;-72
2021/04/15 09:44:52;;;;;;;0.52;0.50;;;;;;;8.85;35.41;102741.16;2582332;55;20117;-74
2021/04/15 09:47:32;;;;;;;0.68;0.40;;;;;;;8.79;34.79;102733.41;2583727;55;20109;-71
2021/04/15 09:50:09;;;;;;;1.02;0.43;;;;;;;8.88;33.96;102737.53;2583715;55;20139;-72
2021/04/15 09:52:49;;;;;;;0.40;0.40;;;;;;;8.62;35.03;102734.00;2583414;55;20104;-73
2021/04/15 09:55:32;;;;;;;1.20;0.40;;;;;;;8.66;34.18;102732.97;2583548;55;20112;-72
2021/04/15 09:58:13;;;;;;;2.90;0.50;;;;;;;8.79;36.46;102732.53;2583530;55;20489;-72
2021/04/15 10:00:48;;;;;;;1.27;0.55;;;;;;;8.99;36.13;102735.34;2583541;55;20622;-72
2021/04/15 10:03:25;;;;;;;1.98;0.77;;;;;;;9.10;36.98;102712.78;2579290;55;20113;-72
2021/04/15 10:06:17;;;;;;;1.30;0.40;;;;;;;9.34;34.29;102724.31;2584260;55;20650;-72
2021/04/15 10:09:04;;;;;;;0.82;0.60;;;;;;;9.35;35.65;102719.84;2584322;55;20128;-72
2021/04/15 10:11:43;;;;;;;1.87;0.47;;;;;;;9.32;35.40;102732.38;2584296;55;20539;-72
2021/04/15 10:14:28;;;;;;;3.03;0.65;;;;;;;9.38;34.60;102738.37;2584445;55;20121;-73
2021/04/15 10:17:12;;;;;;;2.10;0.90;;;;;;;9.38;33.41;102735.72;2584197;55;20105;-73
2021/04/15 10:20:16;;;;;;;0.90;0.45;;;;;;;9.24;32.81;102731.78;2584333;55;20124;-72
2021/04/15 10:22:58;;;;;;;0.47;0.47;;;;;;;9.05;34.78;102729.81;2584375;55;20121;-73
2021/04/15 10:25:38;;;;;;;2.50;0.50;;;;;;;9.20;34.21;102738.13;2584231;55;20139;-72
2021/04/15 10:28:15;;;;;;;0.37;0.25;;;;;;;9.36;32.96;102742.91;2584477;55;20112;-74
2021/04/15 10:31:27;;;;;;;0.30;0.28;;;;;;;9.29;31.62;102737.78;2584208;55;20720;-73
2021/04/15 10:34:27;;;;;;;0.57;0.40;;;;;;;9.20;33.39;102738.13;2584263;55;20135;-73
2021/04/15 10:37:02;;;;;;;0.62;0.50;;;;;;;9.40;34.62;102725.88;2584377;55;20109;-73
2021/04/15 10:40:06;;;;;;;1.67;0.80;;;;;;;9.66;33.86;102724.00;2584372;55;20113;-72
2021/04/15 10:43:07;;;;;;;3.42;0.50;;;;;;;9.57;34.54;102719.88;2584321;55;20106;-73
2021/04/15 10:46:06;;;;;;;2.28;0.50;;;;;;;9.61;35.82;102719.69;2580039;55;20139;-72
2021/04/15 10:48:55;;;;;;;1.12;0.70;;;;;;;9.75;34.86;102713.81;2578521;55;20595;-73
2021/04/15 10:51:34;;;;;;;0.52;0.30;;;;;;;9.61;34.15;102709.03;2584115;55;20109;-72
2021/04/15 10:54:20;;;;;;;0.68;0.43;;;;;;;9.52;34.74;102717.41;2584395;55;20109;-72
2021/04/15 10:56:52;;;;;;;1.10;0.55;;;;;;;9.49;33.79;102701.53;2584366;55;20493;-73
2021/04/15 10:59:37;;;;;;;1.58;0.40;;;;;;;9.71;32.58;102700.69;2584329;55;20128;-72
2021/04/15 11:02:32;;;;;;;2.58;0.37;;;;;;;9.63;32.23;102714.31;2583810;55;20146;-72
2021/04/15 11:05:29;;;;;;;0.47;0.25;;;;;;;9.48;32.79;102713.12;2584255;55;20124;-72
2021/04/15 11:08:06;;;;;;;0.98;0.77;;;;;;;9.30;33.16;102706.72;2574644;55;20499;-73
2021/04/15 11:10:36;;;;;;;0.75;0.20;;;;;;;9.43;34.14;102713.28;2584046;55;20635;-73
2021/04/15 11:13:07;;;;;;;0.85;0.40;;;;;;;9.53;32.07;102710.28;2583842;55;20131;-72
2021/04/15 11:15:43;;;;;;;0.77;0.40;;;;;;;9.42;33.31;102710.69;2584098;55;20121;-73
2021/04/15 11:18:17;;;;;;;0.50;0.20;;;;;;;9.57;33.63;102715.44;2584353;55;20124;-73
2021/04/15 11:20:45;;;;;;;2.65;0.62;;;;;;;9.70;33.53;102704.28;2584032;55;20135;-72
2021/04/15 11:23:29;;;;;;;2.95;0.40;;;;;;;9.90;33.08;102703.50;2584347;55;20492;-72
2021/04/15 11:26:12;;;;;;;0.70;0.50;;;;;;;9.78;32.02;102706.66;2584035;55;20121;-73
2021/04/15 11:28:40;;;;;;;0.43;0.37;;;;;;;9.76;31.83;102698.72;2584160;55;20109;-73
2021/04/15 11:31:30;;;;;;;1.50;0.30;;;;;;;9.83;31.71;102694.00;2583999;55;20151;-73
2021/04/15 11:34:15;;;;;;;1.87;0.50;;;;;;;9.96;31.13;102694.37;2584160;55;20117;-72
2021/04/15 11:36:59;;;;;;;2.00;0.50;;;;;;;9.71;31.62;102692.69;2584121;55;20169;-72
2021/04/15 11:39:29;;;;;;;1.17;0.40;;;;;;;9.61;31.67;102701.03;2583876;55;20726;-71
2021/04/15 11:42:01;;;;;;;0.80;0.40;;;;;;;9.58;30.83;102695.84;2584168;55;20176;-71
2021/04/15 11:44:35;;;;;;;1.60;0.50;;;;;;;9.68;32.79;102700.81;2583975;55;20131;-71
2021/04/15 11:47:07;;;;;;;3.20;1.15;;;;;;;9.74;31.31;102700.56;2584064;55;20117;-71
2021/04/15 11:49:37;;;;;;;;;;;;;;;10.10;32.82;102702.66;2584558;55;20097;-71
2021/04/15 11:52:24;;;;;;;0.73;0.43;;;;;;;9.84;32.51;102699.28;2584029;55;20008;-72
2021/04/15 11:55:23;;;;;;;2.35;0.60;;;;;;;9.82;32.48;102687.81;2583940;55;20123;-71
2021/04/15 11:57:57;;;;;;;2.55;0.50;;;;;;;9.55;31.87;102700.41;2581841;55;20125;-72
2021/04/15 12:00:27;;;;;;;3.10;0.60;;;;;;;9.49;32.62;102690.87;2583832;55;20165;-73
2021/04/15 12:03:10;;;;;;;2.00;0.40;;;;;;;9.59;32.18;102686.06;2584032;55;20145;-72
2021/04/15 12:05:40;;;;;;;1.37;0.68;;;;;;;9.63;32.24;102702.81;2583978;55;20107;-72
2021/04/15 12:08:13;;;;;;;2.37;0.60;;;;;;;9.51;32.07;102694.34;2584085;55;20607;-71
2021/04/15 12:10:43;;;;;;;5.57;1.65;;;;;;;9.34;32.01;102692.34;2584053;55;20143;-71
2021/04/15 12:13:24;;;;;;;3.20;1.02;;;;;;;9.32;32.00;102695.09;2583732;55;20139;-71
2021/04/15 12:15:56;;;;;;;2.63;0.97;;;;;;;9.31;32.87;102693.31;2583824;55;20116;-71
2021/04/15 12:18:30;;;;;;;0.98;0.75;;;;;;;9.27;33.77;102688.16;2584135;55;20117;-71
2021/04/15 12:21:06;;;;;;;4.55;0.65;;;;;;;9.42;32.11;102694.69;2583849;55;20838;-71
2021/04/15 12:23:44;;;;;;;4.18;0.40;;;;;;;9.64;32.30;102689.41;2584137;55;20171;-71